createdAt,value
2022-08-11T00:01:19.309Z,24.50
2022-08-11T00:03:57.452Z,24.54
2022-08-11T00:06:33.995Z,24.52
2022-08-11T00:09:04.063Z,24.54
2022-08-11T00:11:37.805Z,24.63
2022-08-11T00:14:12.915Z,24.57
2022-08-11T00:16:41.871Z,24.49
2022-08-11T00:19:09.207Z,24.46
2022-08-11T00:22:03.817Z,24.43
2022-08-11T00:24:53.379Z,24.50
2022-08-11T00:27:31.739Z,24.48
2022-08-11T00:29:58.347Z,24.58
2022-08-11T00:32:25.298Z,24.55
2022-08-11T00:34:52.716Z,24.54
2022-08-11T00:37:45.130Z,24.44
2022-08-11T00:40:23.117Z,24.36
2022-08-11T00:42:52.544Z,24.38
2022-08-11T00:45:41.081Z,24.37
2022-08-11T00:48:27.651Z,24.29
2022-08-11T00:51:19.041Z,24.32
2022-08-11T00:54:03.133Z,24.40
2022-08-11T00:56:50.041Z,24.34
2022-08-11T00:59:39.107Z,24.31
2022-08-11T01:02:11.532Z,24.26
2022-08-11T01:04:57.174Z,24.27
2022-08-11T01:08:02.049Z,24.14
2022-08-11T01:10:48.485Z,24.09
2022-08-11T01:13:36.957Z,24.00
2022-08-11T01:16:47.068Z,24.11
2022-08-11T01:20:45.790Z,24.24
2022-08-11T01:23:17.684Z,24.27
2022-08-11T01:26:17.617Z,24.27
2022-08-11T01:29:21.830Z,24.25
2022-08-11T01:32:03.789Z,24.27
2022-08-11T01:35:07.439Z,24.29
2022-08-11T01:37:57.716Z,24.39
2022-08-11T01:40:48.577Z,24.22
2022-08-11T01:44:01.234Z,24.19
2022-08-11T01:46:43.423Z,24.16
2022-08-11T01:50:06.693Z,24.18
2022-08-11T01:52:20.693Z,23.98
2022-08-11T01:55:26.685Z,23.84
2022-08-11T01:58:18.051Z,23.69
2022-08-11T02:01:16.607Z,23.58
2022-08-11T02:04:09.707Z,23.51
2022-08-11T02:06:57.643Z,23.34
2022-08-11T02:09:49.683Z,23.33
2022-08-11T02:12:26.450Z,23.23
2022-08-11T02:15:14.556Z,23.21
2022-08-11T02:17:59.339Z,23.10
2022-08-11T02:21:00.499Z,23.01
2022-08-11T02:24:06.157Z,22.99
2022-08-11T02:26:40.192Z,23.02
2022-08-11T02:29:40.346Z,23.19
2022-08-11T02:32:50.689Z,23.32
2022-08-11T02:35:22.983Z,23.23
2022-08-11T02:38:10.905Z,23.06
2022-08-11T02:41:33.428Z,22.92
2022-08-11T02:44:28.190Z,22.93
2022-08-11T02:47:14.529Z,22.93
2022-08-11T02:50:06.878Z,22.94
2022-08-11T02:52:41.421Z,22.87
2022-08-11T02:55:44.467Z,22.79
2022-08-11T02:58:37.190Z,22.76
2022-08-11T03:01:18.309Z,22.65
2022-08-11T03:04:00.583Z,22.59
2022-08-11T03:06:39.348Z,22.57
2022-08-11T03:09:27.223Z,22.65
2022-08-11T03:12:28.615Z,22.63
2022-08-11T03:15:34.637Z,22.60
2022-08-11T03:18:26.804Z,22.77
2022-08-11T03:21:23.643Z,22.64
2022-08-11T03:24:01.601Z,22.77
2022-08-11T03:26:40.108Z,22.87
2022-08-11T03:29:28.445Z,22.74
2022-08-11T03:32:11.262Z,22.63
2022-08-11T03:34:40.420Z,22.73
2022-08-11T03:37:46.676Z,22.71
2022-08-11T03:40:37.784Z,22.70
2022-08-11T03:43:45.792Z,22.72
2022-08-11T03:46:44.964Z,22.67
2022-08-11T03:49:20.890Z,22.65
2022-08-11T03:51:53.166Z,22.65
2022-08-11T03:54:38.496Z,22.68
2022-08-11T03:57:21.043Z,22.60
2022-08-11T04:00:18.337Z,22.49
2022-08-11T04:03:20.633Z,22.53
2022-08-11T04:06:27.207Z,22.71
2022-08-11T04:09:24.809Z,22.71
2022-08-11T04:12:01.538Z,22.67
2022-08-11T04:14:46.449Z,22.51
2022-08-11T04:17:28.191Z,22.50
2022-08-11T04:20:09.626Z,22.56
2022-08-11T04:22:56.333Z,22.64
2022-08-11T04:26:06.276Z,22.73
2022-08-11T04:28:51.424Z,22.79
2022-08-11T04:31:44.278Z,22.86
2022-08-11T04:34:28.296Z,22.98
2022-08-11T04:37:31.418Z,22.90
2022-08-11T04:40:31.644Z,22.78
2022-08-11T04:43:32.537Z,22.66
2022-08-11T04:46:18.986Z,22.62
2022-08-11T04:49:13.756Z,22.71
2022-08-11T04:52:37.605Z,22.51
2022-08-11T04:55:48.288Z,22.59
2022-08-11T04:58:54.030Z,22.64
2022-08-11T05:01:41.513Z,22.48
2022-08-11T05:04:54.486Z,22.59
2022-08-11T05:07:49.257Z,22.60
2022-08-11T05:10:43.569Z,22.74
2022-08-11T05:13:30.768Z,22.82
2022-08-11T05:16:28.150Z,22.69
2022-08-11T05:19:16.228Z,22.86
2022-08-11T05:22:19.383Z,22.92
2022-08-11T05:25:09.721Z,22.97
2022-08-11T05:27:58.930Z,23.09
2022-08-11T05:30:51.317Z,23.20
2022-08-11T05:33:44.611Z,23.21
2022-08-11T05:36:24.288Z,23.07
2022-08-11T05:39:15.988Z,23.06
2022-08-11T05:42:01.617Z,23.00
2022-08-11T05:44:48.402Z,23.08
2022-08-11T05:47:45.270Z,22.92
2022-08-11T05:50:33.048Z,22.92
2022-08-11T05:53:19.913Z,23.02
2022-08-11T05:56:06.162Z,23.12
2022-08-11T05:58:41.168Z,23.29
2022-08-11T06:01:09.537Z,23.48
2022-08-11T06:03:58.236Z,23.20
2022-08-11T06:06:27.060Z,23.21
2022-08-11T06:08:58.888Z,23.29
2022-08-11T06:11:43.928Z,23.46
2022-08-11T06:14:14.638Z,23.66
2022-08-11T06:16:42.747Z,23.80
2022-08-11T06:19:10.384Z,23.94
2022-08-11T06:21:38.085Z,24.10
2022-08-11T06:24:11.869Z,24.46
2022-08-11T06:27:10.721Z,24.49
2022-08-11T06:29:48.087Z,24.56
2022-08-11T06:32:35.895Z,24.37
2022-08-11T06:35:34.892Z,24.38
2022-08-11T06:38:26.157Z,24.42
2022-08-11T06:41:23.101Z,24.54
2022-08-11T06:43:55.194Z,24.63
2022-08-11T06:46:38.873Z,24.69
2022-08-11T06:49:06.848Z,24.72
2022-08-11T06:51:38.427Z,24.83
2022-08-11T06:54:13.482Z,24.96
2022-08-11T06:57:28.966Z,25.23
2022-08-11T07:00:06.826Z,25.23
2022-08-11T07:02:52.695Z,25.20
2022-08-11T07:05:37.444Z,25.19
2022-08-11T07:08:33.937Z,25.40
2022-08-11T07:12:06.750Z,25.39
2022-08-11T07:14:53.075Z,25.39
2022-08-11T07:17:25.982Z,25.46
2022-08-11T07:20:19.855Z,25.54
2022-08-11T07:23:15.117Z,25.83
2022-08-11T07:26:02.497Z,26.04
2022-08-11T07:28:48.761Z,25.90
2022-08-11T07:31:24.150Z,25.89
2022-08-11T07:34:20.725Z,26.09
2022-08-11T07:36:58.768Z,26.08
2022-08-11T07:39:32.699Z,26.13
2022-08-11T07:42:04.876Z,26.26
2022-08-11T07:44:34.961Z,26.26
2022-08-11T07:47:20.858Z,26.45
2022-08-11T07:50:08.680Z,26.56
2022-08-11T07:52:38.211Z,26.44
2022-08-11T07:55:13.501Z,26.71
2022-08-11T07:58:16.970Z,26.84
2022-08-11T08:01:09.884Z,26.78
2022-08-11T08:03:56.712Z,26.68
2022-08-11T08:06:42.584Z,26.67
2022-08-11T08:09:28.829Z,26.49
2022-08-11T08:12:15.610Z,26.43
2022-08-11T08:15:01.455Z,26.50
2022-08-11T08:18:09.014Z,26.60
2022-08-11T08:20:39.413Z,26.68
2022-08-11T08:23:06.892Z,26.58
2022-08-11T08:25:36.270Z,26.60
2022-08-11T08:28:07.383Z,26.73
2022-08-11T08:30:52.578Z,26.97
2022-08-11T08:33:23.353Z,27.11
2022-08-11T08:36:11.639Z,27.21
2022-08-11T08:38:54.079Z,27.32
2022-08-11T08:41:25.233Z,27.51
2022-08-11T08:43:55.842Z,27.80
2022-08-11T08:46:28.198Z,27.83
2022-08-11T08:48:55.174Z,27.95
2022-08-11T08:51:58.708Z,28.05
2022-08-11T08:54:27.822Z,28.06
2022-08-11T08:56:56.758Z,27.72
2022-08-11T08:59:47.927Z,27.66
2022-08-11T09:02:14.201Z,27.79
2022-08-11T09:04:44.663Z,27.64
2022-08-11T09:07:15.393Z,27.63
2022-08-11T09:09:47.759Z,27.86
2022-08-11T09:12:15.469Z,28.04
2022-08-11T09:15:03.660Z,28.34
2022-08-11T09:17:44.844Z,28.48
2022-08-11T09:20:24.665Z,28.62
2022-08-11T09:24:08.857Z,28.51
2022-08-11T09:26:20.004Z,28.42
2022-08-11T09:28:49.723Z,28.44
2022-08-11T09:31:16.721Z,28.28
2022-08-11T09:33:44.548Z,28.38
2022-08-11T09:36:31.796Z,28.82
2022-08-11T09:39:19.214Z,29.01
2022-08-11T09:42:00.945Z,29.06
2022-08-11T09:44:49.987Z,29.11
2022-08-11T09:47:29.796Z,28.84
2022-08-11T09:50:02.095Z,29.03
2022-08-11T09:52:31.237Z,29.05
2022-08-11T09:54:58.669Z,29.08
2022-08-11T09:57:44.226Z,29.48
2022-08-11T10:00:14.199Z,29.52
2022-08-11T10:02:45.100Z,29.34
2022-08-11T10:05:34.884Z,29.09
2022-08-11T10:08:04.161Z,29.15
2022-08-11T10:10:35.790Z,29.33
2022-08-11T10:13:44.072Z,29.21
2022-08-11T10:16:00.107Z,29.34
2022-08-11T10:18:49.262Z,28.89
2022-08-11T10:21:28.302Z,28.93
2022-08-11T10:24:17.281Z,28.91
2022-08-11T10:26:54.640Z,29.24
2022-08-11T10:29:44.377Z,29.63
2022-08-11T10:32:58.307Z,29.72
2022-08-11T10:35:28.048Z,29.87
2022-08-11T10:38:08.876Z,29.92
2022-08-11T10:40:39.458Z,29.98
2022-08-11T10:43:10.519Z,29.80
2022-08-11T10:45:57.729Z,29.57
2022-08-11T10:48:26.621Z,29.75
2022-08-11T10:51:13.357Z,29.97
2022-08-11T10:54:02.518Z,30.12
2022-08-11T10:56:49.465Z,30.21
2022-08-11T10:59:17.088Z,29.91
2022-08-11T11:01:45.392Z,30.15
2022-08-11T11:04:23.145Z,30.18
2022-08-11T11:07:14.952Z,30.02
2022-08-11T11:09:48.343Z,29.77
2022-08-11T11:12:46.881Z,29.70
2022-08-11T11:15:36.722Z,29.89
2022-08-11T11:18:11.574Z,29.83
2022-08-11T11:20:54.961Z,29.81
2022-08-11T11:23:52.334Z,30.09
2022-08-11T11:26:35.948Z,29.96
2022-08-11T11:29:26.976Z,30.28
2022-08-11T11:32:19.325Z,30.30
2022-08-11T11:35:26.627Z,30.06
2022-08-11T11:37:58.502Z,29.61
2022-08-11T11:40:33.029Z,29.27
2022-08-11T11:43:01.013Z,29.30
2022-08-11T11:45:27.906Z,29.48
2022-08-11T11:47:56.370Z,29.51
2022-08-11T11:50:25.365Z,29.55
2022-08-11T11:53:01.461Z,29.63
2022-08-11T11:55:29.448Z,29.87
2022-08-11T11:58:18.899Z,29.86
2022-08-11T12:01:05.985Z,29.75
2022-08-11T12:03:34.407Z,29.72
2022-08-11T12:06:02.825Z,30.02
2022-08-11T12:08:30.118Z,30.23
2022-08-11T12:11:31.738Z,30.31
2022-08-11T12:14:03.275Z,30.46
2022-08-11T12:16:39.321Z,30.35
2022-08-11T12:19:12.986Z,30.28
2022-08-11T12:22:01.408Z,30.39
2022-08-11T12:24:49.367Z,30.41
2022-08-11T12:27:25.306Z,30.35
2022-08-11T12:30:06.415Z,30.28
2022-08-11T12:32:36.525Z,30.22
2022-08-11T12:35:03.956Z,30.18
2022-08-11T12:37:33.193Z,30.11
2022-08-11T12:40:43.782Z,30.31
2022-08-11T12:43:39.854Z,30.28
2022-08-11T12:46:19.304Z,30.19
2022-08-11T12:49:07.739Z,30.32
2022-08-11T12:52:14.637Z,30.41
2022-08-11T12:54:51.433Z,30.64
2022-08-11T12:57:57.915Z,30.60
2022-08-11T13:00:45.424Z,30.52
2022-08-11T13:03:32.639Z,30.31
2022-08-11T13:06:02.573Z,30.45
2022-08-11T13:08:33.586Z,30.47
2022-08-11T13:11:21.374Z,30.71
2022-08-11T13:13:54.168Z,30.58
2022-08-11T13:16:26.226Z,30.56
2022-08-11T13:18:53.751Z,30.39
2022-08-11T13:21:22.011Z,30.31
2022-08-11T13:24:00.439Z,30.36
2022-08-11T13:26:41.644Z,30.15
2022-08-11T13:29:17.763Z,30.30
2022-08-11T13:31:45.530Z,30.50
2022-08-11T13:34:12.962Z,30.71
2022-08-11T13:36:40.766Z,30.76
2022-08-11T13:39:07.796Z,30.84
2022-08-11T13:41:41.762Z,30.72
2022-08-11T13:44:12.021Z,30.88
2022-08-11T13:46:41.403Z,30.76
2022-08-11T13:49:11.332Z,30.69
2022-08-11T13:51:40.133Z,30.66
2022-08-11T13:54:12.112Z,30.65
2022-08-11T13:56:42.261Z,30.76
2022-08-11T13:59:08.700Z,30.58
2022-08-11T14:02:20.239Z,30.80
2022-08-11T14:04:33.950Z,30.91
2022-08-11T14:07:06.326Z,30.83
2022-08-11T14:09:37.549Z,30.79
2022-08-11T14:12:29.769Z,30.55
2022-08-11T14:15:08.089Z,30.55
2022-08-11T14:17:48.731Z,30.67
2022-08-11T14:20:38.754Z,30.62
2022-08-11T14:23:05.988Z,30.69
2022-08-11T14:25:59.697Z,30.66
2022-08-11T14:28:31.607Z,30.66
2022-08-11T14:31:03.067Z,30.66
2022-08-11T14:34:00.684Z,30.76
2022-08-11T14:36:21.508Z,30.72
2022-08-11T14:38:48.622Z,30.58
2022-08-11T14:41:34.462Z,30.64
2022-08-11T14:44:19.805Z,30.68
2022-08-11T14:47:05.691Z,30.57
2022-08-11T14:50:09.633Z,30.47
2022-08-11T14:52:43.319Z,30.57
2022-08-11T14:55:30.830Z,30.55
2022-08-11T14:57:58.138Z,30.56
2022-08-11T15:00:26.427Z,30.56
2022-08-11T15:03:13.733Z,30.57
2022-08-11T15:06:02.194Z,30.53
2022-08-11T15:08:49.590Z,30.66
2022-08-11T15:11:36.811Z,30.52
2022-08-11T15:14:06.157Z,30.48
2022-08-11T15:16:51.857Z,30.41
2022-08-11T15:19:23.424Z,30.40
2022-08-11T15:22:08.922Z,30.53
2022-08-11T15:24:36.548Z,30.45
2022-08-11T15:27:29.584Z,30.52
2022-08-11T15:30:20.231Z,30.36
2022-08-11T15:33:19.229Z,30.55
2022-08-11T15:36:04.533Z,30.65
2022-08-11T15:38:36.729Z,30.56
2022-08-11T15:41:35.957Z,30.50
2022-08-11T15:44:34.013Z,30.72
2022-08-11T15:47:14.246Z,30.84
2022-08-11T15:50:10.731Z,30.66
2022-08-11T15:52:34.672Z,30.67
2022-08-11T15:55:08.511Z,30.55
2022-08-11T15:57:55.873Z,30.37
2022-08-11T16:01:02.081Z,30.30
2022-08-11T16:04:07.106Z,30.44
2022-08-11T16:06:38.329Z,30.42
2022-08-11T16:09:18.054Z,30.38
2022-08-11T16:11:46.450Z,30.48
2022-08-11T16:14:34.228Z,30.49
2022-08-11T16:17:02.946Z,30.44
2022-08-11T16:19:35.145Z,30.44
2022-08-11T16:22:07.192Z,30.47
2022-08-11T16:27:05.715Z,30.48
2022-08-11T16:27:25.476Z,30.53
2022-08-11T16:29:55.186Z,30.47
2022-08-11T16:32:24.504Z,30.39
2022-08-11T16:35:15.625Z,30.35
2022-08-11T16:38:03.466Z,30.31
2022-08-11T16:40:32.389Z,30.21
2022-08-11T16:43:19.159Z,30.25
2022-08-11T16:46:05.850Z,30.27
2022-08-11T16:48:38.233Z,30.27
2022-08-11T16:51:07.249Z,30.32
2022-08-11T16:53:54.787Z,30.31
2022-08-11T16:56:27.332Z,30.34
2022-08-11T16:59:16.739Z,30.32
2022-08-11T17:01:52.918Z,30.40
2022-08-11T17:04:55.014Z,30.39
2022-08-11T17:07:43.295Z,30.36
2022-08-11T17:10:51.598Z,30.31
2022-08-11T17:13:25.816Z,30.18
2022-08-11T17:16:09.381Z,30.16
2022-08-11T17:18:43.005Z,30.14
2022-08-11T17:21:13.928Z,30.07
2022-08-11T17:23:52.309Z,30.04
2022-08-11T17:26:23.223Z,30.03
2022-08-11T17:28:56.653Z,30.05
2022-08-11T17:31:43.090Z,30.00
2022-08-11T17:34:29.984Z,29.96
2022-08-11T17:36:57.590Z,29.97
2022-08-11T17:39:29.177Z,29.92
2022-08-11T17:42:14.883Z,29.92
2022-08-11T17:45:01.728Z,29.91
2022-08-11T17:47:48.878Z,29.91
2022-08-11T17:50:17.139Z,29.86
2022-08-11T17:53:04.655Z,29.88
2022-08-11T17:55:53.559Z,29.78
2022-08-11T17:58:40.293Z,29.71
2022-08-11T18:01:09.574Z,29.70
2022-08-11T18:03:39.906Z,29.66
2022-08-11T18:06:12.445Z,29.57
2022-08-11T18:09:04.805Z,29.52
2022-08-11T18:12:10.259Z,29.45
2022-08-11T18:14:59.361Z,29.32
2022-08-11T18:17:44.471Z,29.22
2022-08-11T18:20:29.744Z,29.20
2022-08-11T18:23:16.069Z,29.10
2022-08-11T18:26:07.361Z,28.99
2022-08-11T18:28:58.538Z,28.91
2022-08-11T18:31:44.762Z,28.52
2022-08-11T18:34:34.773Z,28.09
2022-08-11T18:37:29.334Z,27.87
2022-08-11T18:40:22.110Z,27.69
2022-08-11T18:43:09.011Z,27.59
2022-08-11T18:46:06.551Z,27.54
2022-08-11T18:48:55.295Z,27.60
2022-08-11T18:51:42.662Z,27.54
2022-08-11T18:54:30.011Z,27.45
2022-08-11T18:57:19.854Z,27.40
2022-08-11T19:00:07.264Z,27.25
2022-08-11T19:02:55.740Z,27.14
2022-08-11T19:06:32.204Z,27.12
2022-08-11T19:08:55.670Z,27.11
2022-08-11T19:11:43.734Z,27.06
2022-08-11T19:14:31.201Z,27.00
2022-08-11T19:17:43.754Z,26.98
2022-08-11T19:20:26.832Z,26.99
2022-08-11T19:23:14.947Z,26.99
2022-08-11T19:26:02.741Z,26.98
2022-08-11T19:28:49.024Z,26.99
2022-08-11T19:31:34.356Z,27.00
2022-08-11T19:34:20.217Z,27.03
2022-08-11T19:37:06.455Z,27.01
2022-08-11T19:39:53.591Z,27.00
2022-08-11T19:42:39.469Z,26.97
2022-08-11T19:45:25.439Z,26.98
2022-08-11T19:51:17.808Z,26.96
2022-08-11T19:54:04.143Z,26.97
2022-08-11T19:56:49.552Z,26.97
2022-08-11T19:59:37.795Z,26.94
2022-08-11T20:02:24.133Z,26.93
2022-08-11T20:05:09.357Z,26.90
2022-08-11T20:07:56.241Z,26.87
2022-08-11T20:10:42.109Z,26.89
2022-08-11T20:13:30.157Z,26.84
2022-08-11T20:16:16.693Z,26.85
2022-08-11T20:19:02.627Z,26.84
2022-08-11T20:21:48.515Z,26.83
2022-08-11T20:24:36.225Z,26.85
2022-08-11T20:27:24.984Z,26.90
2022-08-11T20:30:11.851Z,26.92
2022-08-11T20:32:59.415Z,26.91
2022-08-11T20:35:45.291Z,26.91
2022-08-11T20:38:33.680Z,26.89
2022-08-11T20:41:20.136Z,26.92
2022-08-11T20:44:09.441Z,26.92
2022-08-11T20:46:59.135Z,26.82
2022-08-11T20:49:53.684Z,26.72
2022-08-11T20:52:47.532Z,26.73
2022-08-11T20:55:51.864Z,26.69
2022-08-11T21:01:46.721Z,26.66
2022-08-11T21:04:32.987Z,26.62
2022-08-11T21:07:28.722Z,26.65
2022-08-11T21:10:19.427Z,26.60
2022-08-11T21:13:26.505Z,26.49
2022-08-11T21:16:25.316Z,26.43
2022-08-11T21:19:18.934Z,26.42
2022-08-11T21:22:27.988Z,26.39
2022-08-11T21:25:16.073Z,26.29
2022-08-11T21:28:02.876Z,26.30
2022-08-11T21:30:50.068Z,26.30
2022-08-11T21:33:35.430Z,26.26
2022-08-11T21:36:21.737Z,26.12
2022-08-11T21:39:09.252Z,26.04
2022-08-11T21:41:55.941Z,25.97
2022-08-11T21:44:42.289Z,26.01
2022-08-11T21:47:43.188Z,26.03
2022-08-11T21:50:29.637Z,25.85
2022-08-11T21:53:16.581Z,25.86
2022-08-11T21:56:02.502Z,25.89
2022-08-11T21:58:48.768Z,25.81
2022-08-11T22:01:34.747Z,25.83
2022-08-11T22:04:21.398Z,25.76
2022-08-11T22:07:09.235Z,25.74
2022-08-11T22:09:55.588Z,25.75
2022-08-11T22:12:44.698Z,25.77
2022-08-11T22:15:31.156Z,25.76
2022-08-11T22:18:16.313Z,25.70
2022-08-11T22:21:02.284Z,25.61
2022-08-11T22:23:49.755Z,25.58
2022-08-11T22:26:36.476Z,25.54
2022-08-11T22:29:50.251Z,25.52
2022-08-11T22:32:31.717Z,25.33
2022-08-11T22:35:18.511Z,25.28
2022-08-11T22:38:05.729Z,25.37
2022-08-11T22:40:52.747Z,25.23
2022-08-11T22:43:38.570Z,25.15
2022-08-11T22:46:23.801Z,25.27
2022-08-11T22:49:09.500Z,25.32
2022-08-11T22:51:56.915Z,25.29
2022-08-11T22:54:42.477Z,25.08
2022-08-11T22:57:28.783Z,24.97
2022-08-11T23:00:15.546Z,24.62
2022-08-11T23:03:00.891Z,24.33
2022-08-11T23:05:47.678Z,24.46
2022-08-11T23:08:34.455Z,24.49
2022-08-11T23:11:20.335Z,24.45
2022-08-11T23:14:05.574Z,24.53
2022-08-11T23:16:50.947Z,24.49
2022-08-11T23:20:10.444Z,24.46
2022-08-11T23:22:49.985Z,24.47
2022-08-11T23:25:36.402Z,24.59
2022-08-11T23:28:23.675Z,24.63
2022-08-11T23:31:12.539Z,24.67
2022-08-11T23:34:01.032Z,24.63
2022-08-11T23:36:46.998Z,24.65
2022-08-11T23:39:33.295Z,24.65
2022-08-11T23:42:18.464Z,24.73
2022-08-11T23:45:05.113Z,24.76
2022-08-11T23:47:53.911Z,24.74
2022-08-11T23:50:39.245Z,24.71
2022-08-11T23:53:25.475Z,24.62
2022-08-11T23:56:10.945Z,24.62
2022-08-11T23:58:57.393Z,24.60
